createdAt,value
2019-04-24T00:03:34.674Z,52.40
2019-04-24T00:06:24.841Z,52.50
2019-04-24T00:09:10.920Z,52.50
2019-04-24T00:17:19.054Z,54.70
2019-04-24T00:19:58.546Z,54.80
2019-04-24T00:22:47.408Z,54.90
2019-04-24T00:25:15.457Z,55.40
2019-04-24T00:27:45.286Z,55.50
2019-04-24T00:30:20.339Z,55.30
2019-04-24T00:32:59.544Z,55.00
2019-04-24T00:39:08.903Z,55.30
2019-04-24T00:43:14.084Z,55.60
2019-04-24T00:44:13.554Z,55.10
2019-04-24T00:46:50.787Z,55.60
2019-04-24T00:49:21.930Z,56.10
2019-04-24T01:01:25.438Z,57.60
2019-04-24T01:05:07.200Z,57.00
2019-04-24T01:07:36.339Z,56.20
2019-04-24T01:18:33.983Z,54.90
2019-04-24T01:21:08.471Z,54.80
2019-04-24T01:23:55.490Z,54.80
2019-04-24T01:26:20.502Z,54.90
2019-04-24T01:29:18.921Z,55.10
2019-04-24T01:37:22.469Z,54.90
2019-04-24T01:39:54.077Z,54.90
2019-04-24T01:42:30.164Z,54.60
2019-04-24T01:45:16.702Z,54.20
2019-04-24T01:53:47.652Z,53.30
2019-04-24T01:56:25.791Z,54.10
2019-04-24T01:58:56.081Z,54.10
2019-04-24T02:01:22.889Z,53.60
2019-04-24T02:04:00.136Z,54.20
2019-04-24T02:25:56.213Z,54.70
2019-04-24T02:28:25.732Z,54.90
2019-04-24T02:38:17.448Z,54.90
2019-04-24T02:41:04.035Z,55.40
2019-04-24T02:43:34.872Z,55.00
2019-04-24T02:54:09.465Z,55.10
2019-04-24T02:56:29.237Z,55.20
2019-04-24T03:02:32.057Z,54.80
2019-04-24T03:11:28.280Z,55.20
2019-04-24T03:19:49.633Z,55.80
2019-04-24T03:25:13.739Z,55.80
2019-04-24T03:27:46.703Z,56.00
2019-04-24T03:46:19.544Z,55.80
2019-04-24T03:57:19.420Z,56.00
2019-04-24T04:11:12.276Z,57.10
2019-04-24T04:13:41.985Z,57.00
2019-04-24T04:16:08.403Z,57.50
2019-04-24T04:35:02.569Z,57.30
2019-04-24T04:37:46.610Z,57.30
2019-04-24T04:48:08.996Z,56.80
2019-04-24T04:53:37.933Z,57.10
2019-04-24T04:59:06.377Z,56.40
2019-04-24T05:11:52.707Z,55.70
2019-04-24T05:14:35.411Z,55.40
2019-04-24T05:19:33.186Z,54.70
2019-04-24T05:24:51.016Z,55.30
2019-04-24T05:27:36.762Z,55.40
2019-04-24T05:35:49.974Z,54.20
2019-04-24T05:38:48.653Z,53.90
2019-04-24T05:41:09.789Z,53.60
2019-04-24T05:43:54.166Z,53.40
2019-04-24T05:46:33.375Z,53.30
2019-04-24T05:51:47.613Z,54.00
2019-04-24T05:54:36.178Z,54.30
2019-04-24T06:00:15.488Z,52.00
2019-04-24T06:02:44.261Z,49.40
2019-04-24T06:10:41.240Z,50.80
2019-04-24T06:16:01.503Z,50.70
2019-04-24T06:21:24.560Z,51.10
2019-04-24T06:24:07.226Z,51.20
2019-04-24T06:39:39.727Z,50.50
2019-04-24T06:42:26.871Z,50.40
2019-04-24T06:50:12.330Z,51.60
2019-04-24T06:55:35.789Z,51.40
2019-04-24T07:00:40.511Z,51.80
2019-04-24T07:05:49.768Z,51.50
2019-04-24T07:08:36.978Z,51.30
2019-04-24T07:11:40.424Z,50.90
2019-04-24T07:14:17.907Z,51.30
2019-04-24T07:19:47.168Z,52.00
2019-04-24T07:25:09.532Z,52.80
2019-04-24T07:30:55.932Z,54.30
2019-04-24T07:33:25.224Z,54.90
2019-04-24T07:38:56.828Z,55.60
2019-04-24T07:44:08.772Z,55.70
2019-04-24T07:46:47.647Z,56.00
2019-04-24T07:49:26.014Z,56.30
2019-04-24T07:54:54.251Z,56.80
2019-04-24T08:02:35.742Z,55.50
2019-04-24T08:04:59.635Z,54.70
2019-04-24T08:07:51.948Z,55.40
2019-04-24T08:13:00.056Z,54.40
2019-04-24T08:15:46.864Z,54.30
2019-04-24T08:18:09.049Z,53.50
2019-04-24T08:23:27.210Z,52.20
2019-04-24T08:28:40.644Z,50.90
2019-04-24T08:36:55.066Z,49.50
2019-04-24T08:39:36.308Z,48.40
2019-04-24T08:42:14.523Z,48.70
2019-04-24T08:44:49.963Z,48.20
2019-04-24T08:47:12.350Z,46.30
2019-04-24T09:03:02.474Z,45.70
2019-04-24T09:05:43.081Z,45.80
2019-04-24T09:14:13.308Z,45.10
2019-04-24T09:16:40.797Z,44.80
2019-04-24T09:19:06.804Z,45.60
2019-04-24T09:21:42.546Z,45.70
2019-04-24T09:27:40.375Z,45.70
2019-04-24T09:32:58.744Z,44.90
2019-04-24T09:36:03.767Z,45.00
2019-04-24T09:38:20.455Z,45.40
2019-04-24T09:43:56.502Z,45.00
2019-04-24T09:46:18.204Z,43.90
2019-04-24T09:51:29.841Z,43.40
2019-04-24T09:54:13.090Z,43.90
2019-04-24T09:59:25.752Z,43.60
2019-04-24T10:10:06.665Z,43.60
2019-04-24T10:15:26.111Z,43.50
2019-04-24T10:17:55.157Z,43.30
2019-04-24T10:20:23.992Z,43.40
2019-04-24T10:26:13.519Z,44.30
2019-04-24T10:29:15.992Z,44.30
2019-04-24T10:34:43.851Z,43.50
2019-04-24T10:42:25.944Z,42.60
2019-04-24T10:45:16.679Z,42.60
2019-04-24T10:50:53.349Z,43.20
2019-04-24T10:53:36.451Z,42.80
2019-04-24T10:56:44.310Z,42.60
2019-04-24T10:59:25.833Z,41.90
2019-04-24T11:02:47.027Z,42.10
2019-04-24T11:08:57.797Z,42.70
2019-04-24T11:11:40.134Z,42.60
2019-04-24T11:15:04.626Z,42.60
2019-04-24T11:21:34.652Z,42.90
2019-04-24T11:23:42.327Z,42.60
2019-04-24T11:29:19.166Z,41.00
2019-04-24T11:41:26.263Z,41.00
2019-04-24T11:44:12.271Z,41.60
2019-04-24T11:50:44.379Z,42.30
2019-04-24T11:56:45.615Z,40.10
2019-04-24T11:58:48.001Z,40.40
2019-04-24T12:02:32.516Z,40.30
2019-04-24T12:05:24.761Z,41.00
2019-04-24T12:08:38.971Z,40.90
2019-04-24T12:11:21.760Z,41.00
2019-04-24T12:16:50.076Z,40.00
2019-04-24T12:22:53.297Z,40.00
2019-04-24T12:30:55.452Z,39.70
2019-04-24T12:41:26.683Z,39.20
2019-04-24T12:47:46.734Z,38.40
2019-04-24T12:50:28.285Z,38.90
2019-04-24T12:54:02.584Z,39.60
2019-04-24T12:59:59.041Z,38.60
2019-04-24T13:09:09.348Z,38.00
2019-04-24T13:11:41.995Z,37.90
2019-04-24T13:17:22.653Z,39.40
2019-04-24T13:21:57.109Z,38.90
2019-04-24T13:24:43.288Z,39.40
2019-04-24T13:28:33.914Z,39.00
2019-04-24T13:31:18.945Z,38.80
2019-04-24T13:34:38.987Z,38.80
2019-04-24T13:37:09.937Z,39.10
2019-04-24T13:40:02.747Z,37.60
2019-04-24T13:46:03.435Z,38.80
2019-04-24T13:51:59.162Z,38.20
2019-04-24T14:08:19.835Z,39.10
2019-04-24T14:11:06.261Z,39.70
2019-04-24T14:13:00.434Z,39.70
2019-04-24T14:16:02.183Z,39.40
2019-04-24T14:18:21.325Z,39.20
2019-04-24T14:21:04.721Z,39.60
2019-04-24T14:24:05.724Z,38.50
2019-04-24T14:26:23.004Z,39.60
2019-04-24T14:31:25.544Z,38.40
2019-04-24T14:34:15.117Z,38.70
2019-04-24T14:39:34.391Z,40.20
2019-04-24T14:42:40.402Z,38.40
2019-04-24T14:45:42.271Z,38.50
2019-04-24T14:48:28.093Z,37.60
2019-04-24T14:50:58.548Z,38.30
2019-04-24T14:54:09.777Z,37.70
2019-04-24T14:56:47.920Z,35.70
2019-04-24T15:02:17.591Z,38.60
2019-04-24T15:04:54.237Z,38.50
2019-04-24T15:07:32.012Z,39.30
2019-04-24T15:10:03.860Z,39.90
2019-04-24T15:13:31.997Z,40.70
2019-04-24T15:16:19.109Z,40.50
2019-04-24T15:19:12.844Z,41.60
2019-04-24T15:21:57.809Z,41.60
2019-04-24T15:25:01.008Z,42.60
2019-04-24T15:26:57.932Z,41.50
2019-04-24T15:29:26.074Z,41.10
2019-04-24T15:32:06.502Z,40.50
2019-04-24T15:34:33.324Z,40.20
2019-04-24T15:37:07.281Z,41.70
2019-04-24T15:39:45.361Z,40.80
2019-04-24T15:42:08.812Z,40.50
2019-04-24T15:45:14.436Z,39.40
2019-04-24T15:53:14.884Z,39.30
2019-04-24T15:56:21.609Z,39.10
2019-04-24T15:59:03.194Z,39.10
2019-04-24T16:04:54.540Z,39.00
2019-04-24T16:08:07.946Z,39.60
2019-04-24T16:10:42.711Z,40.20
2019-04-24T16:13:56.074Z,39.90
2019-04-24T16:16:51.190Z,39.30
2019-04-24T16:19:30.023Z,41.80
2019-04-24T16:21:52.947Z,43.10
2019-04-24T16:27:12.472Z,49.00
2019-04-24T16:29:39.174Z,52.80
2019-04-24T16:35:05.558Z,58.30
2019-04-24T16:40:39.342Z,68.90
2019-04-24T16:49:04.857Z,70.00
2019-04-24T16:51:55.501Z,66.90
2019-04-24T16:54:54.365Z,63.00
2019-04-24T16:57:30.092Z,64.50
2019-04-24T17:03:04.833Z,62.50
2019-04-24T17:05:29.601Z,60.70
2019-04-24T17:12:19.347Z,68.30
2019-04-24T17:17:48.265Z,66.10
2019-04-24T17:20:47.426Z,62.50
2019-04-24T17:23:11.143Z,61.60
2019-04-24T17:28:32.953Z,58.60
2019-04-24T17:34:05.606Z,56.70
2019-04-24T17:36:19.189Z,59.00
2019-04-24T17:39:00.038Z,58.30
2019-04-24T17:41:39.197Z,63.80
2019-04-24T17:46:04.973Z,61.40
2019-04-24T17:49:48.998Z,61.90
2019-04-24T17:53:07.913Z,66.70
2019-04-24T17:55:35.149Z,67.00
2019-04-24T17:57:46.409Z,64.50
2019-04-24T18:00:26.502Z,64.00
2019-04-24T18:03:06.880Z,62.90
2019-04-24T18:05:35.357Z,65.10
2019-04-24T18:08:09.249Z,63.30
2019-04-24T18:10:42.419Z,65.60
2019-04-24T18:13:16.100Z,66.10
2019-04-24T18:16:41.219Z,64.20
2019-04-24T18:19:20.089Z,65.80
2019-04-24T18:22:42.543Z,68.40
2019-04-24T18:25:32.428Z,69.90
2019-04-24T18:35:08.396Z,75.50
2019-04-24T18:37:44.863Z,75.80
2019-04-24T18:47:25.537Z,75.80
2019-04-24T18:50:08.122Z,75.90
2019-04-24T18:52:49.129Z,72.30
2019-04-24T18:55:13.402Z,71.50
2019-04-24T18:57:45.510Z,68.40
2019-04-24T19:00:46.460Z,69.60
2019-04-24T19:03:23.023Z,67.50
2019-04-24T19:06:43.704Z,70.60
2019-04-24T19:09:18.076Z,71.40
2019-04-24T19:14:55.216Z,70.00
2019-04-24T19:17:31.402Z,68.30
2019-04-24T19:20:05.594Z,67.30
2019-04-24T19:24:14.245Z,69.00
2019-04-24T19:25:17.224Z,69.40
2019-04-24T19:27:48.530Z,69.00
2019-04-24T19:30:25.261Z,69.80
2019-04-24T19:32:56.016Z,68.70
2019-04-24T19:35:32.377Z,68.00
2019-04-24T19:38:04.898Z,68.40
2019-04-24T19:43:33.521Z,65.00
2019-04-24T19:46:04.564Z,65.90
2019-04-24T19:48:43.770Z,66.00
2019-04-24T19:51:14.316Z,65.60
2019-04-24T19:54:31.948Z,64.80
2019-04-24T19:57:14.004Z,63.20
2019-04-24T20:02:24.986Z,63.40
2019-04-24T20:04:58.453Z,63.70
2019-04-24T20:07:33.845Z,63.20
2019-04-24T20:13:16.570Z,60.90
2019-04-24T20:16:31.121Z,60.20
2019-04-24T20:19:03.397Z,59.60
2019-04-24T20:21:35.258Z,59.80
2019-04-24T20:24:04.766Z,60.00
2019-04-24T20:26:41.283Z,61.20
2019-04-24T20:29:11.462Z,60.70
2019-04-24T20:31:41.282Z,61.00
2019-04-24T20:34:51.785Z,61.50
2019-04-24T20:37:22.639Z,61.50
2019-04-24T20:42:43.727Z,63.50
2019-04-24T20:48:09.354Z,62.70
2019-04-24T20:50:41.593Z,62.30
2019-04-24T20:53:18.771Z,62.00
2019-04-24T20:55:52.552Z,61.50
2019-04-24T20:58:57.701Z,61.20
2019-04-24T21:01:49.528Z,61.80
2019-04-24T21:04:03.441Z,63.40
2019-04-24T21:07:03.350Z,64.80
2019-04-24T21:09:42.215Z,64.10
2019-04-24T21:12:13.967Z,63.90
2019-04-24T21:14:46.083Z,64.20
2019-04-24T21:17:14.959Z,64.80
2019-04-24T21:20:08.610Z,64.70
2019-04-24T21:22:39.008Z,64.10
2019-04-24T21:25:44.376Z,64.80
2019-04-24T21:28:13.272Z,65.90
2019-04-24T21:30:45.111Z,65.20
2019-04-24T21:34:08.496Z,65.00
2019-04-24T21:36:45.571Z,66.30
2019-04-24T21:39:51.620Z,65.80
2019-04-24T21:42:24.555Z,65.50
2019-04-24T21:44:54.142Z,65.90
2019-04-24T21:47:24.947Z,65.10
2019-04-24T21:49:57.121Z,64.70
2019-04-24T21:52:55.630Z,63.50
2019-04-24T21:55:27.267Z,64.10
2019-04-24T22:01:03.147Z,63.70
2019-04-24T22:06:44.718Z,64.60
2019-04-24T22:09:18.589Z,67.20
2019-04-24T22:12:25.556Z,65.30
2019-04-24T22:14:57.049Z,64.60
2019-04-24T22:17:27.805Z,65.50
2019-04-24T22:20:03.577Z,66.50
2019-04-24T22:22:37.090Z,66.60
2019-04-24T22:28:39.813Z,63.20
2019-04-24T22:31:10.869Z,65.10
2019-04-24T22:33:43.146Z,65.30
2019-04-24T22:36:12.710Z,66.20
2019-04-24T22:38:46.231Z,67.10
2019-04-24T22:41:15.637Z,67.10
2019-04-24T22:43:54.810Z,67.60
2019-04-24T22:46:24.198Z,66.90
2019-04-24T22:48:53.400Z,65.50
2019-04-24T22:51:22.628Z,65.50
2019-04-24T22:53:51.715Z,65.20
2019-04-24T22:56:58.115Z,64.40
2019-04-24T22:59:27.377Z,64.70
2019-04-24T23:02:00.432Z,65.10
2019-04-24T23:04:31.192Z,63.00
2019-04-24T23:07:05.502Z,64.90
2019-04-24T23:09:37.744Z,64.90
2019-04-24T23:12:09.064Z,64.50
2019-04-24T23:14:39.080Z,65.10
2019-04-24T23:18:04.220Z,64.80
2019-04-24T23:20:38.686Z,65.10
2019-04-24T23:26:00.303Z,65.20
2019-04-24T23:35:37.376Z,64.70
2019-04-24T23:38:08.801Z,64.90
2019-04-24T23:40:40.259Z,66.00
2019-04-24T23:43:27.623Z,65.00
2019-04-24T23:45:56.793Z,65.10
2019-04-24T23:48:28.158Z,65.00
2019-04-24T23:50:59.055Z,64.80
2019-04-24T23:53:27.808Z,64.80
2019-04-24T23:56:38.113Z,64.50
2019-04-24T23:59:08.101Z,65.00
